WetterOnline ( https://www.wetteronline.de )

Wetter aktuell Paganella

Aktuelles Wetter: Paganella (2129m)

6-stündlich | Neueste Meldungen
Ortszeit Temperatur Wetter
So, 26.06. 14:00 15.0° C leicht bewölkt
So, 26.06. 8:00 10.8° C fast wolkenlos
So, 26.06. 2:00 8.8° C wolkenlos
Sa, 25.06. 20:00 13.2° C wolkenlos
Sa, 25.06. 14:00 13.2° C fast wolkenlos
Sa, 25.06. 8:00 9.0° C fast wolkenlos
Sa, 25.06. 2:00 6.4° C wolkenlos
Fr, 24.06. 20:00 8.2° C leicht bewölkt
Ortszeit Temperatur Wetter
So, 26.06. 18:00 15.8° C leicht bewölkt
So, 26.06. 17:00 16.2° C leicht bewölkt
So, 26.06. 16:00 16.8° C leicht bewölkt
So, 26.06. 15:00 16.2° C leicht bewölkt
So, 26.06. 14:00 15.0° C leicht bewölkt
So, 26.06. 13:00 14.8° C leicht bewölkt
So, 26.06. 12:00 14.0° C leicht bewölkt
Ortszeit Relative Feuchte Sichtweite
So, 26.06. 14:00 69% 40 km
So, 26.06. 8:00 87% 12 km
So, 26.06. 2:00 87% 25 km
Sa, 25.06. 20:00 60% 60 km
Sa, 25.06. 14:00 54% 50 km
Sa, 25.06. 8:00 58% 50 km
Sa, 25.06. 2:00 95% 40 km
Fr, 24.06. 20:00 79% 40 km
Ortszeit Relative Feuchte Sichtweite
So, 26.06. 18:00 61% 40 km
So, 26.06. 17:00 61% 40 km
So, 26.06. 16:00 60% 40 km
So, 26.06. 15:00 65% 40 km
So, 26.06. 14:00 69% 40 km
So, 26.06. 13:00 68% 30 km
So, 26.06. 12:00 71% 30 km
Ortszeit Niederschlagsmenge Niederschlagsart
So, 26.06. 14:00 0.0 l/m2 in 6 Std. -
So, 26.06. 8:00 0.0 l/m2 in 12 Std. -
So, 26.06. 2:00 0.0 l/m2 in 6 Std. -
Sa, 25.06. 20:00 0.0 l/m2 in 12 Std. -
Sa, 25.06. 14:00 0.0 l/m2 in 6 Std. -
Sa, 25.06. 8:00 0.0 l/m2 in 12 Std. -
Sa, 25.06. 2:00 0.0 l/m2 in 6 Std. -
Fr, 24.06. 20:00 9 l/m2 in 12 Std. Gewitter, Regen
Ortszeit Niederschlagsmenge Niederschlagsart
So, 26.06. 18:00 keine Meldung -
So, 26.06. 17:00 keine Meldung -
So, 26.06. 16:00 keine Meldung -
So, 26.06. 15:00 keine Meldung -
So, 26.06. 14:00 keine Meldung -
So, 26.06. 13:00 keine Meldung -
So, 26.06. 12:00 keine Meldung -
Ortszeit Stärke Spitze Richtung
km/h Bft. km/h Grad Sektor
So, 26.06. 14:00 20 4 30 200° S
So, 26.06. 8:00 9 2 - 180° S
So, 26.06. 2:00 19 3 - 200° S
Sa, 25.06. 20:00 24 4 35 200° S
Sa, 25.06. 14:00 20 4 - 180° S
Sa, 25.06. 8:00 17 3 26 30° NO
Sa, 25.06. 2:00 22 4 33 - -
Fr, 24.06. 20:00 41 6 50 240° SW
Ortszeit Stärke Spitze Richtung
km/h Bft. km/h Grad Sektor
So, 26.06. 18:00 31 5 - 200° S
So, 26.06. 17:00 28 4 - 190° S
So, 26.06. 16:00 22 4 - 200° S
So, 26.06. 15:00 19 3 - 200° S
So, 26.06. 14:00 20 4 30 200° S
So, 26.06. 13:00 22 4 - 190° S
So, 26.06. 12:00 24 4 - 190° S
Ortszeit Untergrenze Bedeckung Gattung
total tief tief mittel hoch
So, 26.06. 14:00 450 m 4/8 3/8 Cu - Ci
So, 26.06. 8:00 450 m 1/8 1/8 Cu - -
So, 26.06. 2:00 - 0/8 0/8 - - -
Sa, 25.06. 20:00 - 0/8 0/8 - - -
Sa, 25.06. 14:00 600 m 1/8 1/8 Cu - -
Sa, 25.06. 8:00 150 m 1/8 1/8 Cu - -
Sa, 25.06. 2:00 - 0/8 0/8 - - -
Fr, 24.06. 20:00 90 m 5/8 5/8 Cu - -
Ortszeit Bedeckungsgrad in Achtel und Wolkenuntergrenze
So, 26.06. 18:00 2(510m)
So, 26.06. 17:00 2(510m)
So, 26.06. 16:00 3(450m)
So, 26.06. 15:00 3(450m)
So, 26.06. 14:00 3(450m)
So, 26.06. 13:00 3(450m)
So, 26.06. 12:00 3(450m)
Ortszeit Stationsdruck (hPa) Tendenz (hPa in 3 Std.)
So, 26.06. 14:00 792 + 0,6
So, 26.06. 8:00 790 + 0,8
So, 26.06. 2:00 789 + 0,1
Sa, 25.06. 20:00 788 0,0
Sa, 25.06. 14:00 788 0,0
Sa, 25.06. 8:00 787 + 0,7
Sa, 25.06. 2:00 786 + 0,2
Fr, 24.06. 20:00 785 - 0,7
Ortszeit Stationsdruck (hPa) Tendenz (hPa in 3 Std.)
So, 26.06. 18:00 791 - 0,3
So, 26.06. 17:00 792 0,0
So, 26.06. 16:00 792 + 0,3
So, 26.06. 15:00 792 + 0,5
So, 26.06. 14:00 792 + 0,6
So, 26.06. 13:00 791 + 0,4
So, 26.06. 12:00 791 + 0,4
Ortszeit Schneehöhe (cm)
So, 26.06. 14:00 -
So, 26.06. 8:00 0
So, 26.06. 2:00 -
Sa, 25.06. 20:00 -
Sa, 25.06. 14:00 -
Sa, 25.06. 8:00 0
Sa, 25.06. 2:00 -
Fr, 24.06. 20:00 -
Ortszeit Schneehöhe (cm)
So, 26.06. 18:00 -
So, 26.06. 17:00 -
So, 26.06. 16:00 -
So, 26.06. 15:00 -
So, 26.06. 14:00 -
So, 26.06. 13:00 -
So, 26.06. 12:00 -
Link zu dieser Seite / Seite empfehlen

Das Wetter in ...